LFCR/RDZ METAR and TAF weather

Enter ICAO airport designator
Station Type Date Time Source
LFCR METAR 2022/11/30 18:30 UTC NOAA

LFCR 301830Z AUTO VRB02KT CAVOK 02/M01 Q1017 TEMPO 4000 BR


Station Type Date Time Source
LFCR Decoded METAR 2022/11/30 18:30 UTC NOAA

Rodez, France (LFCR) 44-24N 002-29E 580M
Nov 30, 2022 - 01:30 PM EST / 2022.11.30 1830 UTC
Wind: Variable at 2 MPH (2 KT):0
Visibility: greater than 7 mile(s):0
Temperature: 35 F (2 C)
Dew Point: 30 F (-1 C)
Relative Humidity: 80%
Pressure (altimeter): 30.03 in. Hg (1017 hPa)
ob: LFCR 301830Z AUTO VRB02KT CAVOK 02/M01 Q1017 TEMPO 4000 BR
cycle: 18

Station Type Date Time Source
LFCR TAF 2022/11/30 18:42 UTC NOAA

TAF LFCR 301700Z 3018/0118 06004KT CAVOK PROB30
TEMPO 3019/0108 4000 BR PROB30
TEMPO 0116/0118 0400 FG VV///

Example: see airport list